Boulevard, New York
Current Conditions -  °F | °C
As of 1:51 PM on Friday 21 Nov 2014 (Local Time) from KLGA Reporting Station
Few Clouds Few Clouds  
Wind Chill: -4°   Ceiling: Unl
Heat Index:   Visibility: 10mi
Dew Point: -11°   Wind: 22mph
Humidity: 39%   Direction: 300°WNW
Pressure: 30.31"   Gusts: 31mph
Location:  40.8106°N, 73.8845°W
Report Text: KLGA 211851Z 30019G27KT 10SM FEW060 02/M11 A3031 RMK AO2 PK WND 30028/1841 SLP262 T00221106
Loading
Personal Weather Stations






























Interactive Weather Map New forecast layout! Learn more

10-Day Weather Forecast

Advertisements
Track Severe Weather on mobile